sensor_id;sensor_type;location;lat;lon;timestamp;pressure;altitude;pressure_sealevel;temperature;humidity
77149;BME280;66122;47.130;16.844;2024-01-27T00:08:54;100676.22;;;5.24;91.28
77149;BME280;66122;47.130;16.844;2024-01-27T00:18:58;100676.97;;;5.31;89.82
77149;BME280;66122;47.130;16.844;2024-01-27T00:29:01;100687.78;;;5.13;90.69
77149;BME280;66122;47.130;16.844;2024-01-27T00:39:04;100707.63;;;5.30;86.98
77149;BME280;66122;47.130;16.844;2024-01-27T00:49:07;100719.88;;;5.31;86.17
77149;BME280;66122;47.130;16.844;2024-01-27T00:59:09;100723.66;;;5.15;85.31
77149;BME280;66122;47.130;16.844;2024-01-27T01:09:12;100729.22;;;4.95;85.54
77149;BME280;66122;47.130;16.844;2024-01-27T01:19:15;100708.56;;;4.72;87.15
77149;BME280;66122;47.130;16.844;2024-01-27T01:29:17;100706.78;;;5.27;83.06
77149;BME280;66122;47.130;16.844;2024-01-27T01:39:20;100720.78;;;5.29;82.46
77149;BME280;66122;47.130;16.844;2024-01-27T01:49:23;100748.28;;;5.08;83.91
77149;BME280;66122;47.130;16.844;2024-01-27T01:59:25;100750.50;;;4.76;85.73
77149;BME280;66122;47.130;16.844;2024-01-27T02:09:28;100757.00;;;4.50;87.62
77149;BME280;66122;47.130;16.844;2024-01-27T02:19:35;100753.47;;;4.53;85.81
77149;BME280;66122;47.130;16.844;2024-01-27T02:29:38;100758.84;;;4.44;85.32
77149;BME280;66122;47.130;16.844;2024-01-27T02:39:40;100767.59;;;4.41;83.98
77149;BME280;66122;47.130;16.844;2024-01-27T02:49:43;100777.47;;;4.22;84.23
77149;BME280;66122;47.130;16.844;2024-01-27T02:59:46;100798.78;;;3.90;85.15
77149;BME280;66122;47.130;16.844;2024-01-27T03:09:49;100817.28;;;3.75;85.51
77149;BME280;66122;47.130;16.844;2024-01-27T03:19:51;100826.00;;;3.79;83.51
77149;BME280;66122;47.130;16.844;2024-01-27T03:29:58;100811.47;;;3.43;85.23
77149;BME280;66122;47.130;16.844;2024-01-27T03:40:01;100836.03;;;3.25;87.37
77149;BME280;66122;47.130;16.844;2024-01-27T03:50:04;100850.13;;;3.07;86.51
77149;BME280;66122;47.130;16.844;2024-01-27T04:00:07;100852.81;;;2.92;86.83
77149;BME280;66122;47.130;16.844;2024-01-27T04:10:10;100856.50;;;2.49;90.06
77149;BME280;66122;47.130;16.844;2024-01-27T04:20:13;100860.88;;;2.47;89.75
77149;BME280;66122;47.130;16.844;2024-01-27T04:30:15;100860.91;;;2.44;91.14
77149;BME280;66122;47.130;16.844;2024-01-27T04:40:18;100873.06;;;2.48;93.60
77149;BME280;66122;47.130;16.844;2024-01-27T04:50:21;100867.88;;;2.45;92.84
77149;BME280;66122;47.130;16.844;2024-01-27T05:00:23;100850.25;;;2.83;91.30
77149;BME280;66122;47.130;16.844;2024-01-27T05:10:28;100900.03;;;2.71;92.46
77149;BME280;66122;47.130;16.844;2024-01-27T05:20:32;100928.03;;;2.35;94.92
77149;BME280;66122;47.130;16.844;2024-01-27T05:30:35;100942.81;;;2.65;93.88
77149;BME280;66122;47.130;16.844;2024-01-27T05:40:37;100948.91;;;2.57;94.16
77149;BME280;66122;47.130;16.844;2024-01-27T05:50:43;100946.22;;;2.81;93.18
77149;BME280;66122;47.130;16.844;2024-01-27T06:00:46;100959.41;;;2.43;95.26
77149;BME280;66122;47.130;16.844;2024-01-27T06:10:49;100964.66;;;2.25;96.71
77149;BME280;66122;47.130;16.844;2024-01-27T06:20:51;100996.91;;;2.22;96.59
77149;BME280;66122;47.130;16.844;2024-01-27T06:30:54;101009.97;;;2.16;97.02
77149;BME280;66122;47.130;16.844;2024-01-27T06:40:57;101012.59;;;2.16;96.55
77149;BME280;66122;47.130;16.844;2024-01-27T06:50:59;101016.06;;;2.46;95.54
77149;BME280;66122;47.130;16.844;2024-01-27T07:01:02;101032.47;;;3.31;92.54
77149;BME280;66122;47.130;16.844;2024-01-27T07:11:05;101056.88;;;3.39;91.42
77149;BME280;66122;47.130;16.844;2024-01-27T07:21:08;101065.56;;;3.49;90.06
77149;BME280;66122;47.130;16.844;2024-01-27T07:31:11;101074.28;;;3.57;90.38
77149;BME280;66122;47.130;16.844;2024-01-27T07:41:13;101077.59;;;5.04;86.17
77149;BME280;66122;47.130;16.844;2024-01-27T07:51:16;101094.69;;;5.41;80.40
77149;BME280;66122;47.130;16.844;2024-01-27T08:01:19;101107.34;;;5.82;78.01
77149;BME280;66122;47.130;16.844;2024-01-27T08:11:21;101118.50;;;6.04;75.34
77149;BME280;66122;47.130;16.844;2024-01-27T08:21:24;101145.59;;;7.67;71.42
77149;BME280;66122;47.130;16.844;2024-01-27T08:31:26;101166.25;;;8.33;72.43
77149;BME280;66122;47.130;16.844;2024-01-27T08:41:29;101164.13;;;9.21;68.38
77149;BME280;66122;47.130;16.844;2024-01-27T08:51:32;101177.06;;;8.98;64.80
77149;BME280;66122;47.130;16.844;2024-01-27T09:01:34;101180.06;;;10.15;59.46
77149;BME280;66122;47.130;16.844;2024-01-27T09:11:37;101157.47;;;10.61;57.40
77149;BME280;66122;47.130;16.844;2024-01-27T09:21:39;101161.03;;;11.14;55.05
77149;BME280;66122;47.130;16.844;2024-01-27T09:31:42;101167.56;;;10.21;56.99
77149;BME280;66122;47.130;16.844;2024-01-27T09:41:46;101172.09;;;11.01;52.35
77149;BME280;66122;47.130;16.844;2024-01-27T09:51:50;101171.69;;;12.35;48.21
77149;BME280;66122;47.130;16.844;2024-01-27T10:01:54;101185.50;;;13.54;44.95
77149;BME280;66122;47.130;16.844;2024-01-27T10:12:00;101195.44;;;13.07;45.37
77149;BME280;66122;47.130;16.844;2024-01-27T10:22:03;101183.59;;;13.15;42.30
77149;BME280;66122;47.130;16.844;2024-01-27T10:32:09;101152.34;;;15.11;39.88
77149;BME280;66122;47.130;16.844;2024-01-27T10:42:12;101162.84;;;14.97;36.13
77149;BME280;66122;47.130;16.844;2024-01-27T10:52:17;101166.78;;;14.33;35.32
77149;BME280;66122;47.130;16.844;2024-01-27T11:02:23;101160.50;;;13.16;37.07
77149;BME280;66122;47.130;16.844;2024-01-27T11:12:26;101156.25;;;13.73;34.75
77149;BME280;66122;47.130;16.844;2024-01-27T11:22:29;101148.94;;;15.07;33.65
77149;BME280;66122;47.130;16.844;2024-01-27T11:32:33;101139.50;;;14.27;33.96
77149;BME280;66122;47.130;16.844;2024-01-27T11:42:35;101137.66;;;14.66;33.17
77149;BME280;66122;47.130;16.844;2024-01-27T11:52:38;101146.31;;;14.53;33.26
77149;BME280;66122;47.130;16.844;2024-01-27T12:02:41;101113.72;;;14.08;32.46
77149;BME280;66122;47.130;16.844;2024-01-27T12:12:44;101121.81;;;14.26;31.61
77149;BME280;66122;47.130;16.844;2024-01-27T12:22:47;101131.53;;;14.64;30.54
77149;BME280;66122;47.130;16.844;2024-01-27T12:32:49;101144.00;;;15.51;29.03
77149;BME280;66122;47.130;16.844;2024-01-27T12:42:52;101127.13;;;16.01;30.60
77149;BME280;66122;47.130;16.844;2024-01-27T12:52:54;101119.63;;;14.34;29.89
77149;BME280;66122;47.130;16.844;2024-01-27T13:02:57;101124.94;;;14.71;30.64
77149;BME280;66122;47.130;16.844;2024-01-27T13:12:59;101137.75;;;15.18;30.48
77149;BME280;66122;47.130;16.844;2024-01-27T13:23:02;101121.00;;;13.66;32.62
77149;BME280;66122;47.130;16.844;2024-01-27T13:33:05;101144.84;;;11.71;36.30
77149;BME280;66122;47.130;16.844;2024-01-27T13:43:08;101157.16;;;9.82;39.76
77149;BME280;66122;47.130;16.844;2024-01-27T13:53:11;101159.72;;;9.22;40.70
77149;BME280;66122;47.130;16.844;2024-01-27T14:03:13;101143.94;;;8.46;52.47
77149;BME280;66122;47.130;16.844;2024-01-27T14:13:16;101150.91;;;8.09;54.68
77149;BME280;66122;47.130;16.844;2024-01-27T14:23:19;101173.41;;;7.85;54.92
77149;BME280;66122;47.130;16.844;2024-01-27T14:33:21;101181.88;;;7.56;56.23
77149;BME280;66122;47.130;16.844;2024-01-27T14:43:26;101213.34;;;7.16;59.60
77149;BME280;66122;47.130;16.844;2024-01-27T14:53:30;101213.16;;;6.73;62.79
77149;BME280;66122;47.130;16.844;2024-01-27T15:03:32;101216.22;;;6.43;62.82
77149;BME280;66122;47.130;16.844;2024-01-27T15:13:35;101207.69;;;6.25;61.30
77149;BME280;66122;47.130;16.844;2024-01-27T15:23:38;101196.41;;;6.13;61.40
77149;BME280;66122;47.130;16.844;2024-01-27T15:33:41;101182.94;;;5.64;66.39
77149;BME280;66122;47.130;16.844;2024-01-27T15:43:44;101205.22;;;5.26;67.67
77149;BME280;66122;47.130;16.844;2024-01-27T15:53:49;101210.72;;;4.99;67.12
77149;BME280;66122;47.130;16.844;2024-01-27T16:03:52;101196.81;;;4.88;68.48
77149;BME280;66122;47.130;16.844;2024-01-27T16:13:54;101209.94;;;4.89;65.32
77149;BME280;66122;47.130;16.844;2024-01-27T16:23:57;101224.09;;;4.65;65.30
77149;BME280;66122;47.130;16.844;2024-01-27T16:33:59;101262.72;;;4.35;66.35
77149;BME280;66122;47.130;16.844;2024-01-27T16:44:03;101277.78;;;3.76;69.31
77149;BME280;66122;47.130;16.844;2024-01-27T16:54:05;101304.03;;;3.43;70.28
77149;BME280;66122;47.130;16.844;2024-01-27T17:04:08;101293.53;;;3.43;71.33
77149;BME280;66122;47.130;16.844;2024-01-27T17:14:15;101293.53;;;3.41;72.43
77149;BME280;66122;47.130;16.844;2024-01-27T17:24:19;101285.69;;;3.31;75.28
77149;BME280;66122;47.130;16.844;2024-01-27T17:34:21;101313.63;;;3.64;73.03
77149;BME280;66122;47.130;16.844;2024-01-27T17:44:24;101318.84;;;3.94;71.75
77149;BME280;66122;47.130;16.844;2024-01-27T17:54:27;101341.59;;;3.71;74.41
77149;BME280;66122;47.130;16.844;2024-01-27T18:04:34;101356.38;;;3.12;76.75
77149;BME280;66122;47.130;16.844;2024-01-27T18:14:37;101384.16;;;2.65;78.98
77149;BME280;66122;47.130;16.844;2024-01-27T18:24:40;101408.53;;;2.55;80.46
77149;BME280;66122;47.130;16.844;2024-01-27T18:34:43;101408.50;;;2.53;82.22
77149;BME280;66122;47.130;16.844;2024-01-27T18:44:46;101425.09;;;2.55;82.56
77149;BME280;66122;47.130;16.844;2024-01-27T18:54:49;101414.66;;;2.57;82.45
77149;BME280;66122;47.130;16.844;2024-01-27T19:04:52;101403.22;;;2.46;84.55
77149;BME280;66122;47.130;16.844;2024-01-27T19:14:55;101404.81;;;2.19;86.83
77149;BME280;66122;47.130;16.844;2024-01-27T19:24:58;101437.84;;;2.05;86.41
77149;BME280;66122;47.130;16.844;2024-01-27T19:35:01;101449.97;;;1.94;86.27
77149;BME280;66122;47.130;16.844;2024-01-27T19:45:07;101455.22;;;1.99;85.45
77149;BME280;66122;47.130;16.844;2024-01-27T19:55:10;101474.47;;;2.08;85.03
77149;BME280;66122;47.130;16.844;2024-01-27T20:05:13;101501.44;;;2.04;84.63
77149;BME280;66122;47.130;16.844;2024-01-27T20:15:16;101508.25;;;1.85;86.12
77149;BME280;66122;47.130;16.844;2024-01-27T20:25:19;101502.84;;;1.69;86.90
77149;BME280;66122;47.130;16.844;2024-01-27T20:35:24;101512.47;;;1.71;87.87
77149;BME280;66122;47.130;16.844;2024-01-27T20:45:28;101525.47;;;1.65;87.64
77149;BME280;66122;47.130;16.844;2024-01-27T20:55:31;101539.97;;;1.40;87.81
77149;BME280;66122;47.130;16.844;2024-01-27T21:05:34;101549.31;;;1.23;88.05
77149;BME280;66122;47.130;16.844;2024-01-27T21:15:36;101550.13;;;1.17;88.63
77149;BME280;66122;47.130;16.844;2024-01-27T21:25:39;101562.16;;;1.05;90.25
77149;BME280;66122;47.130;16.844;2024-01-27T21:35:43;101555.56;;;0.71;91.76
77149;BME280;66122;47.130;16.844;2024-01-27T21:45:45;101555.97;;;0.41;94.67
77149;BME280;66122;47.130;16.844;2024-01-27T21:55:49;101547.41;;;0.48;95.20
77149;BME280;66122;47.130;16.844;2024-01-27T22:05:51;101571.78;;;0.50;93.82
77149;BME280;66122;47.130;16.844;2024-01-27T22:15:54;101595.47;;;0.65;93.68
77149;BME280;66122;47.130;16.844;2024-01-27T22:25:57;101603.75;;;0.40;95.69
77149;BME280;66122;47.130;16.844;2024-01-27T22:36:00;101588.31;;;0.54;95.96
77149;BME280;66122;47.130;16.844;2024-01-27T22:46:02;101605.59;;;1.00;96.85
77149;BME280;66122;47.130;16.844;2024-01-27T22:56:06;101613.72;;;1.21;95.44
77149;BME280;66122;47.130;16.844;2024-01-27T23:06:08;101615.56;;;0.72;97.17
77149;BME280;66122;47.130;16.844;2024-01-27T23:16:11;101607.78;;;0.23;99.74
77149;BME280;66122;47.130;16.844;2024-01-27T23:26:14;101609.34;;;0.12;100.00
77149;BME280;66122;47.130;16.844;2024-01-27T23:36:16;101609.28;;;0.60;100.00
77149;BME280;66122;47.130;16.844;2024-01-27T23:46:19;101628.44;;;1.17;98.42
77149;BME280;66122;47.130;16.844;2024-01-27T23:56:21;101647.81;;;1.33;96.61
